createdAt,value
2018-12-25T00:02:37.525Z,98758.98
2018-12-25T00:05:27.660Z,98761.73
2018-12-25T00:08:17.778Z,98763.86
2018-12-25T00:11:07.731Z,98753.08
2018-12-25T00:13:57.496Z,98763.69
2018-12-25T00:16:47.284Z,98761.61
2018-12-25T00:19:29.568Z,98766.41
2018-12-25T00:22:19.353Z,98765.13
2018-12-25T00:25:09.256Z,98767.20
2018-12-25T00:27:59.274Z,98762.11
2018-12-25T00:30:48.884Z,98756.34
2018-12-25T00:33:38.834Z,98761.98
2018-12-25T00:36:28.750Z,98752.59
2018-12-25T00:39:18.506Z,98747.79
2018-12-25T00:42:27.309Z,98749.59
2018-12-25T00:45:18.373Z,98748.21
2018-12-25T00:48:08.663Z,98738.88
2018-12-25T00:50:58.661Z,98739.81
2018-12-25T00:54:07.551Z,98749.58
2018-12-25T00:56:57.488Z,98737.98
2018-12-25T00:59:47.522Z,98726.94
2018-12-25T01:02:37.367Z,98729.58
2018-12-25T01:08:36.464Z,98723.77
2018-12-25T01:11:26.793Z,98735.11
2018-12-25T01:14:16.694Z,98733.80
2018-12-25T01:17:06.493Z,98725.67
2018-12-25T01:19:56.259Z,98725.45
2018-12-25T01:22:46.388Z,98721.41
2018-12-25T01:25:36.269Z,98728.89
2018-12-25T01:28:26.460Z,98717.30
2018-12-25T01:31:16.582Z,98728.25
2018-12-25T01:34:06.332Z,98733.27
2018-12-25T01:36:56.168Z,98734.11
2018-12-25T01:39:46.141Z,98736.53
2018-12-25T01:45:31.526Z,98745.69
2018-12-25T01:48:21.691Z,98745.40
2018-12-25T01:51:11.863Z,98767.94
2018-12-25T01:54:01.690Z,98785.27
2018-12-25T01:56:51.837Z,98797.34
2018-12-25T01:59:41.657Z,98800.82
2018-12-25T02:02:31.809Z,98799.72
2018-12-25T02:05:22.064Z,98799.48
2018-12-25T02:08:31.084Z,98795.27
2018-12-25T02:11:02.140Z,98794.62
2018-12-25T02:13:33.087Z,98785.55
2018-12-25T02:16:03.922Z,98789.42
2018-12-25T02:18:47.521Z,98803.58
2018-12-25T02:21:37.290Z,98804.61
2018-12-25T02:24:27.126Z,98787.25
2018-12-25T02:27:17.256Z,98796.13
2018-12-25T02:30:26.402Z,98782.50
2018-12-25T02:33:16.175Z,98783.16
2018-12-25T02:36:06.037Z,98779.11
2018-12-25T02:38:56.225Z,98777.80
2018-12-25T02:41:46.108Z,98778.36
2018-12-25T02:44:35.917Z,98778.91
2018-12-25T02:47:26.870Z,98779.19
2018-12-25T02:50:16.793Z,98776.84
2018-12-25T02:53:06.621Z,98780.80
2018-12-25T02:55:56.472Z,98773.98
2018-12-25T02:59:05.559Z,98776.42
2018-12-25T03:05:04.064Z,98763.94
2018-12-25T03:07:53.800Z,98765.70
2018-12-25T03:10:43.638Z,98767.92
2018-12-25T03:13:33.403Z,98752.09
2018-12-25T03:16:23.146Z,98750.66
2018-12-25T03:19:05.152Z,98753.80
2018-12-25T03:21:54.887Z,98749.72
2018-12-25T03:24:44.640Z,98747.77
2018-12-25T03:27:34.651Z,98745.56
2018-12-25T03:30:24.396Z,98738.89
2018-12-25T03:33:14.542Z,98730.33
2018-12-25T03:36:04.428Z,98743.28
2018-12-25T03:38:54.173Z,98747.30
2018-12-25T03:41:43.914Z,98740.92
2018-12-25T03:44:33.918Z,98750.52
2018-12-25T03:47:24.104Z,98753.35
2018-12-25T03:50:13.869Z,98753.84
2018-12-25T03:53:03.696Z,98748.91
2018-12-25T03:55:53.705Z,98759.58
2018-12-25T03:58:43.527Z,98752.04
2018-12-25T04:04:28.505Z,98753.14
2018-12-25T04:07:18.252Z,98744.63
2018-12-25T04:10:08.388Z,98747.98
2018-12-25T04:12:58.753Z,98742.23
2018-12-25T04:15:48.501Z,98741.27
2018-12-25T04:18:31.289Z,98750.58
2018-12-25T04:21:21.039Z,98752.19
2018-12-25T04:24:10.792Z,98746.85
2018-12-25T04:27:00.844Z,98743.94
2018-12-25T04:29:51.109Z,98739.22
2018-12-25T04:32:41.818Z,98742.09
2018-12-25T04:35:31.904Z,98736.37
2018-12-25T04:38:22.294Z,98740.34
2018-12-25T04:41:12.112Z,98736.20
2018-12-25T04:44:01.880Z,98737.67
2018-12-25T04:46:51.627Z,98737.67
2018-12-25T04:49:41.655Z,98735.99
2018-12-25T04:52:31.401Z,98742.39
2018-12-25T04:55:21.161Z,98747.53
2018-12-25T04:58:10.907Z,98749.39
2018-12-25T05:01:01.045Z,98748.40
2018-12-25T05:03:50.871Z,98738.63
2018-12-25T05:06:41.324Z,98745.30
2018-12-25T05:09:31.218Z,98739.58
2018-12-25T05:15:15.880Z,98722.58
2018-12-25T05:17:58.335Z,98719.94
2018-12-25T05:23:44.166Z,98735.49
2018-12-25T05:26:34.589Z,98736.19
2018-12-25T05:29:24.340Z,98741.27
2018-12-25T05:32:14.334Z,98742.53
2018-12-25T05:35:04.156Z,98742.53
2018-12-25T05:37:53.919Z,98739.24
2018-12-25T05:43:53.034Z,98752.30
2018-12-25T05:46:42.823Z,98748.78
2018-12-25T05:49:33.027Z,98743.25
2018-12-25T05:52:22.870Z,98753.92
2018-12-25T05:55:12.606Z,98756.68
2018-12-25T05:58:02.343Z,98749.86
2018-12-25T06:00:52.513Z,98745.86
2018-12-25T06:03:42.273Z,98748.92
2018-12-25T06:06:32.206Z,98748.72
2018-12-25T06:09:21.946Z,98746.66
2018-12-25T06:12:11.725Z,98757.27
2018-12-25T06:15:01.473Z,98758.03
2018-12-25T06:17:44.183Z,98766.43
2018-12-25T06:20:55.237Z,98755.77
2018-12-25T06:23:44.446Z,98753.98
2018-12-25T06:26:34.195Z,98749.94
2018-12-25T06:32:19.236Z,98751.69
2018-12-25T06:35:09.020Z,98750.98
2018-12-25T06:37:59.097Z,98762.45
2018-12-25T06:40:48.866Z,98758.98
2018-12-25T06:43:38.906Z,98763.54
2018-12-25T06:46:28.756Z,98751.79
2018-12-25T06:49:18.564Z,98753.13
2018-12-25T06:55:18.626Z,98762.16
2018-12-25T06:58:08.446Z,98752.01
2018-12-25T07:00:58.873Z,98771.70
2018-12-25T07:03:48.955Z,98771.16
2018-12-25T07:06:39.034Z,98772.32
2018-12-25T07:09:29.098Z,98769.51
2018-12-25T07:12:18.842Z,98762.83
2018-12-25T07:15:09.319Z,98769.51
2018-12-25T07:17:52.045Z,98766.83
2018-12-25T07:20:42.135Z,98771.28
2018-12-25T07:23:31.919Z,98762.61
2018-12-25T07:26:22.478Z,98763.22
2018-12-25T07:29:12.650Z,98769.46
2018-12-25T07:32:02.721Z,98766.31
2018-12-25T07:34:52.738Z,98768.95
2018-12-25T07:37:42.555Z,98767.81
2018-12-25T07:40:32.297Z,98766.84
2018-12-25T07:43:22.389Z,98761.69
2018-12-25T07:49:21.582Z,98771.73
2018-12-25T07:52:11.420Z,98772.16
2018-12-25T07:55:01.623Z,98777.70
2018-12-25T07:57:51.864Z,98781.37
2018-12-25T08:00:41.701Z,98775.12
2018-12-25T08:03:31.852Z,98779.45
2018-12-25T08:06:21.845Z,98775.83
2018-12-25T08:09:11.616Z,98781.34
2018-12-25T08:12:02.015Z,98778.98
2018-12-25T08:14:53.105Z,98770.24
2018-12-25T08:17:42.989Z,98773.34
2018-12-25T08:20:33.149Z,98779.08
2018-12-25T08:23:22.902Z,98783.97
2018-12-25T08:26:13.271Z,98773.06
2018-12-25T08:29:03.039Z,98768.92
2018-12-25T08:31:53.269Z,98766.66
2018-12-25T08:34:43.320Z,98769.30
2018-12-25T08:37:33.401Z,98764.36
2018-12-25T08:40:23.527Z,98769.68
2018-12-25T08:43:13.979Z,98765.34
2018-12-25T08:46:04.214Z,98762.61
2018-12-25T08:48:53.950Z,98765.16
2018-12-25T08:51:44.334Z,98782.70
2018-12-25T08:57:43.086Z,98786.14
2018-12-25T09:00:33.199Z,98805.84
2018-12-25T09:03:23.274Z,98803.98
2018-12-25T09:06:13.502Z,98811.27
2018-12-25T09:12:13.641Z,98804.48
2018-12-25T09:15:03.716Z,98807.15
2018-12-25T09:17:46.612Z,98796.53
2018-12-25T09:20:36.354Z,98794.66
2018-12-25T09:23:26.128Z,98784.02
2018-12-25T09:26:16.171Z,98793.36
2018-12-25T09:29:06.246Z,98793.70
2018-12-25T09:31:56.076Z,98806.51
2018-12-25T09:34:45.883Z,98797.86
2018-12-25T09:37:36.084Z,98807.80
2018-12-25T09:40:26.129Z,98805.59
2018-12-25T09:43:16.237Z,98796.32
2018-12-25T09:46:06.605Z,98807.88
2018-12-25T09:48:56.328Z,98807.47
2018-12-25T09:51:46.069Z,98784.94
2018-12-25T09:54:36.106Z,98798.16
2018-12-25T09:57:26.137Z,98803.38
2018-12-25T10:00:15.865Z,98793.20
2018-12-25T10:03:05.680Z,98794.68
2018-12-25T10:05:55.419Z,98779.20
2018-12-25T10:08:45.175Z,98773.72
2018-12-25T10:11:34.917Z,98767.28
2018-12-25T10:14:24.703Z,98761.45
2018-12-25T10:17:14.504Z,98760.16
2018-12-25T10:19:57.197Z,98758.81
2018-12-25T10:22:47.267Z,98757.41
2018-12-25T10:25:37.617Z,98768.20
2018-12-25T10:28:27.886Z,98766.92
2018-12-25T10:31:17.848Z,98755.95
2018-12-25T10:34:07.576Z,98736.48
2018-12-25T10:36:57.307Z,98738.52
2018-12-25T10:39:47.046Z,98720.71
2018-12-25T10:42:37.059Z,98719.09
2018-12-25T10:45:26.869Z,98723.52
2018-12-25T10:48:16.994Z,98717.59
2018-12-25T10:51:06.726Z,98715.41
2018-12-25T10:53:56.550Z,98702.18
2018-12-25T10:56:46.346Z,98704.64
2018-12-25T10:59:36.092Z,98705.91
2018-12-25T11:02:26.108Z,98709.73
2018-12-25T11:05:15.850Z,98709.52
2018-12-25T11:08:05.579Z,98706.61
2018-12-25T11:10:55.316Z,98704.95
2018-12-25T11:13:45.122Z,98703.59
2018-12-25T11:16:34.937Z,98702.23
2018-12-25T11:19:17.711Z,98703.51
2018-12-25T11:22:07.478Z,98711.83
2018-12-25T11:24:57.219Z,98705.25
2018-12-25T11:27:47.259Z,98704.56
2018-12-25T11:30:36.994Z,98691.46
2018-12-25T11:33:26.730Z,98685.27
2018-12-25T11:36:16.553Z,98684.89
2018-12-25T11:39:46.703Z,98689.89
2018-12-25T11:42:36.540Z,98694.01
2018-12-25T11:45:26.597Z,98705.46
2018-12-25T11:51:25.163Z,98718.95
2018-12-25T11:54:14.885Z,98724.84
2018-12-25T11:57:04.769Z,98737.15
2018-12-25T11:59:54.493Z,98742.23
2018-12-25T12:02:44.310Z,98745.67
2018-12-25T12:05:34.128Z,98742.95
2018-12-25T12:08:23.858Z,98748.43
2018-12-25T12:11:13.863Z,98745.80
2018-12-25T12:14:03.671Z,98749.02
2018-12-25T12:17:12.197Z,98748.59
2018-12-25T12:19:55.107Z,98752.83
2018-12-25T12:22:44.852Z,98760.86
2018-12-25T12:25:34.863Z,98775.08
2018-12-25T12:28:24.835Z,98769.19
2018-12-25T12:31:14.645Z,98757.86
2018-12-25T12:34:04.456Z,98759.80
2018-12-25T12:36:54.257Z,98768.20
2018-12-25T12:39:43.990Z,98758.32
2018-12-25T12:42:34.090Z,98768.20
2018-12-25T12:45:24.485Z,98764.09
2018-12-25T12:48:14.574Z,98772.03
2018-12-25T12:54:13.283Z,98790.73
2018-12-25T12:57:03.050Z,98796.03
2018-12-25T12:59:52.771Z,98793.49
2018-12-25T13:02:42.510Z,98796.71
2018-12-25T13:05:32.227Z,98794.64
2018-12-25T13:08:22.283Z,98799.25
2018-12-25T13:11:12.003Z,98796.78
2018-12-25T13:14:01.740Z,98792.75
2018-12-25T13:16:51.651Z,98794.83
2018-12-25T13:19:34.418Z,98799.55
2018-12-25T13:22:24.440Z,98799.91
2018-12-25T13:25:14.406Z,98800.09
2018-12-25T13:28:04.139Z,98800.20
2018-12-25T13:30:53.864Z,98795.97
2018-12-25T13:33:43.682Z,98786.39
2018-12-25T13:36:33.407Z,98788.17
2018-12-25T13:39:23.410Z,98789.44
2018-12-25T13:42:13.216Z,98783.08
2018-12-25T13:45:02.967Z,98789.75
2018-12-25T13:47:53.111Z,98791.03
2018-12-25T13:50:42.996Z,98789.77
2018-12-25T13:53:32.736Z,98787.42
2018-12-25T13:56:22.804Z,98792.31
2018-12-25T13:59:12.542Z,98788.95
2018-12-25T14:02:02.272Z,98794.05
2018-12-25T14:07:47.529Z,98792.47
2018-12-25T14:10:37.337Z,98797.56
2018-12-25T14:13:27.427Z,98811.19
2018-12-25T14:16:17.162Z,98817.45
2018-12-25T14:18:59.666Z,98826.30
2018-12-25T14:21:49.392Z,98827.95
2018-12-25T14:24:39.215Z,98829.22
2018-12-25T14:27:28.936Z,98833.72
2018-12-25T14:30:19.030Z,98831.56
2018-12-25T14:33:10.964Z,98830.70
2018-12-25T14:36:00.791Z,98818.44
2018-12-25T14:38:50.518Z,98816.88
2018-12-25T14:41:40.254Z,98815.89
2018-12-25T14:44:30.331Z,98812.67
2018-12-25T14:47:20.430Z,98807.19
2018-12-25T14:50:10.268Z,98814.23
2018-12-25T14:52:59.992Z,98825.69
2018-12-25T14:55:49.805Z,98823.06
2018-12-25T14:58:39.529Z,98829.80
2018-12-25T15:01:29.273Z,98834.08
2018-12-25T15:04:19.000Z,98828.83
2018-12-25T15:07:09.156Z,98841.73
2018-12-25T15:09:58.871Z,98836.46
2018-12-25T15:12:48.953Z,98837.23
2018-12-25T15:15:38.715Z,98837.01
2018-12-25T15:18:20.815Z,98839.25
2018-12-25T15:21:10.552Z,98845.23
2018-12-25T15:24:00.301Z,98839.54
2018-12-25T15:26:50.045Z,98833.28
2018-12-25T15:29:39.767Z,98838.76
2018-12-25T15:32:29.523Z,98837.65
2018-12-25T15:35:19.867Z,98836.38
2018-12-25T15:38:09.591Z,98836.67
2018-12-25T15:40:59.697Z,98844.38
2018-12-25T15:43:49.436Z,98843.53
2018-12-25T15:46:39.510Z,98852.16
2018-12-25T15:49:29.593Z,98852.83
2018-12-25T15:52:19.981Z,98854.19
2018-12-25T15:55:10.203Z,98847.35
2018-12-25T15:58:00.310Z,98849.01
2018-12-25T16:00:50.447Z,98849.39
2018-12-25T16:03:40.209Z,98850.19
2018-12-25T16:06:30.056Z,98850.95
2018-12-25T16:09:19.793Z,98851.15
2018-12-25T16:12:09.559Z,98847.49
2018-12-25T16:14:59.323Z,98848.08
2018-12-25T16:17:49.707Z,98844.16
2018-12-25T16:20:39.530Z,98855.84
2018-12-25T16:23:29.599Z,98850.41
2018-12-25T16:26:38.127Z,98855.59
2018-12-25T16:29:29.509Z,98860.93
2018-12-25T16:32:19.763Z,98860.13
2018-12-25T16:35:09.589Z,98854.67
2018-12-25T16:37:59.332Z,98853.65
2018-12-25T16:40:49.071Z,98847.30
2018-12-25T16:43:39.081Z,98858.26
2018-12-25T16:46:28.807Z,98847.39
2018-12-25T16:49:18.639Z,98842.33
2018-12-25T16:55:03.774Z,98843.53
2018-12-25T16:57:53.524Z,98837.30
2018-12-25T17:00:43.339Z,98834.66
2018-12-25T17:03:33.084Z,98825.20
2018-12-25T17:06:23.144Z,98826.48
2018-12-25T17:09:12.902Z,98828.26
2018-12-25T17:12:02.623Z,98818.86
2018-12-25T17:14:52.375Z,98812.69
2018-12-25T17:18:01.395Z,98806.23
2018-12-25T17:20:43.519Z,98819.49
2018-12-25T17:23:33.290Z,98820.08
2018-12-25T17:26:23.537Z,98819.94
2018-12-25T17:29:13.280Z,98819.72
2018-12-25T17:32:03.026Z,98816.08
2018-12-25T17:35:11.880Z,98813.47
2018-12-25T17:38:01.958Z,98819.39
2018-12-25T17:40:52.083Z,98805.13
2018-12-25T17:43:42.189Z,98824.59
2018-12-25T17:46:31.922Z,98822.72
2018-12-25T17:49:21.671Z,98824.79
2018-12-25T17:52:11.765Z,98821.47
2018-12-25T17:55:01.863Z,98833.38
2018-12-25T17:57:51.609Z,98824.50
2018-12-25T18:00:41.363Z,98826.20
2018-12-25T18:03:31.416Z,98821.17
2018-12-25T18:06:21.446Z,98823.41
2018-12-25T18:09:11.183Z,98819.42
2018-12-25T18:12:00.927Z,98803.11
2018-12-25T18:14:50.717Z,98808.10
2018-12-25T18:17:40.452Z,98810.59
2018-12-25T18:20:23.303Z,98808.11
2018-12-25T18:23:13.568Z,98810.31
2018-12-25T18:26:03.631Z,98815.81
2018-12-25T18:28:53.718Z,98808.05
2018-12-25T18:31:43.720Z,98811.09
2018-12-25T18:34:33.472Z,98815.09
2018-12-25T18:37:23.206Z,98804.09
2018-12-25T18:40:12.970Z,98820.08
2018-12-25T18:43:02.705Z,98821.61
2018-12-25T18:45:52.469Z,98815.19
2018-12-25T18:48:42.550Z,98814.70
2018-12-25T18:51:32.299Z,98810.79
2018-12-25T18:54:27.759Z,98811.33
2018-12-25T18:57:13.922Z,98804.26
2018-12-25T19:00:03.667Z,98802.11
2018-12-25T19:02:53.435Z,98806.33
2018-12-25T19:05:43.481Z,98805.28
2018-12-25T19:08:33.216Z,98801.11
2018-12-25T19:11:23.143Z,98803.53
2018-12-25T19:14:13.239Z,98799.09
2018-12-25T19:17:03.459Z,98798.57
2018-12-25T19:19:45.914Z,98791.35
2018-12-25T19:22:54.942Z,98795.53
2018-12-25T19:25:44.684Z,98790.89
2018-12-25T19:28:34.426Z,98793.18
2018-12-25T19:31:24.485Z,98791.91
2018-12-25T19:34:14.232Z,98790.16
2018-12-25T19:37:04.307Z,98791.16
2018-12-25T19:39:54.114Z,98792.43
2018-12-25T19:42:43.942Z,98796.75
2018-12-25T19:45:34.306Z,98809.41
2018-12-25T19:48:24.047Z,98802.72
2018-12-25T19:51:14.515Z,98809.14
2018-12-25T19:54:23.191Z,98814.09
2018-12-25T19:57:12.938Z,98820.91
2018-12-25T20:00:03.090Z,98811.56
2018-12-25T20:03:30.957Z,98811.20
2018-12-25T20:06:55.614Z,98813.69
2018-12-25T20:10:23.454Z,98808.67
2018-12-25T20:13:51.560Z,98807.16
2018-12-25T20:17:19.668Z,98806.15
2018-12-25T20:20:20.915Z,98799.67
2018-12-25T20:23:48.765Z,98791.95
2018-12-25T20:27:16.615Z,98792.97
2018-12-25T20:30:44.479Z,98793.12
2018-12-25T20:34:12.325Z,98789.71
2018-12-25T20:37:40.182Z,98786.91
2018-12-25T20:41:08.017Z,98786.92
2018-12-25T20:44:35.872Z,98779.59
2018-12-25T20:48:03.719Z,98792.66
2018-12-25T20:51:31.555Z,98794.55
2018-12-25T20:55:01.475Z,98794.19
2018-12-25T20:58:29.011Z,98791.02
2018-12-25T21:01:57.085Z,98795.08
2018-12-25T21:05:24.937Z,98789.39
2018-12-25T21:08:52.784Z,98793.81
2018-12-25T21:12:20.620Z,98787.75
2018-12-25T21:15:48.460Z,98775.89
2018-12-25T21:18:50.336Z,98768.41
2018-12-25T21:22:26.219Z,98766.15
2018-12-25T21:25:54.096Z,98754.40
2018-12-25T21:28:43.924Z,98759.56
2018-12-25T21:31:33.824Z,98767.81
2018-12-25T21:34:23.729Z,98760.97
2018-12-25T21:40:44.001Z,98752.67
2018-12-25T21:43:53.237Z,98753.67
2018-12-25T21:46:43.349Z,98744.83
2018-12-25T21:49:33.360Z,98744.05
2018-12-25T21:52:23.719Z,98743.54
2018-12-25T21:55:18.531Z,98749.48
2018-12-25T21:58:05.157Z,98743.51
2018-12-25T22:00:55.155Z,98744.77
2018-12-25T22:03:45.591Z,98746.81
2018-12-25T22:06:35.417Z,98751.23
2018-12-25T22:09:25.241Z,98752.53
2018-12-25T22:15:23.724Z,98747.34
2018-12-25T22:18:13.456Z,98751.77
2018-12-25T22:23:58.849Z,98751.66
2018-12-25T22:26:48.584Z,98758.48
2018-12-25T22:29:38.313Z,98753.66
2018-12-25T22:32:28.066Z,98752.89
2018-12-25T22:35:18.168Z,98745.81
2018-12-25T22:38:07.904Z,98750.61
2018-12-25T22:40:57.672Z,98741.29
2018-12-25T22:43:47.405Z,98743.55
2018-12-25T22:46:37.231Z,98743.17
2018-12-25T22:49:27.358Z,98735.96
2018-12-25T22:52:17.107Z,98734.95
2018-12-25T22:55:26.331Z,98742.04
2018-12-25T22:58:16.356Z,98728.39
2018-12-25T23:01:06.342Z,98729.64
2018-12-25T23:03:56.638Z,98717.02
2018-12-25T23:06:46.398Z,98725.87
2018-12-25T23:09:36.132Z,98721.31
2018-12-25T23:12:25.874Z,98725.34
2018-12-25T23:15:15.629Z,98722.19
2018-12-25T23:18:05.460Z,98726.75
2018-12-25T23:20:55.192Z,98723.59
2018-12-25T23:23:44.946Z,98728.13
2018-12-25T23:29:43.608Z,98701.12
2018-12-25T23:32:33.428Z,98700.24
2018-12-25T23:35:23.155Z,98689.00
2018-12-25T23:38:12.908Z,98686.96
2018-12-25T23:41:02.636Z,98702.73
2018-12-25T23:43:52.641Z,98701.87
2018-12-25T23:46:42.458Z,98681.16
2018-12-25T23:49:32.217Z,98704.61
2018-12-25T23:52:21.951Z,98712.92
2018-12-25T23:55:12.289Z,98723.77
2018-12-25T23:58:02.300Z,98737.92
